Time;durP1;ratioP1;P1;durP2;ratioP2;P2;SDS_P1;SDS_P2;PMS_P1;PMS_P2;Temp;Humidity;BMP_temperature;BMP_pressure;BME280_temperature;BME280_humidity;BME280_pressure;Samples;Min_cycle;Max_cycle;Signal;HPM_P1;HPM_P2
2022/07/30 00:02:21;;;;;;;5.30;4.30;;;18.10;99.90;;;;;;5058953;28;20192;-67
2022/07/30 00:04:47;;;;;;;7.47;4.22;;;18.10;99.90;;;;;;5093194;28;20191;-68
2022/07/30 00:07:13;;;;;;;6.50;4.60;;;18.00;99.90;;;;;;5093654;28;20638;-67
2022/07/30 00:09:39;;;;;;;8.68;4.63;;;18.00;99.90;;;;;;5075270;28;20637;-67
2022/07/30 00:12:06;;;;;;;6.80;4.70;;;17.90;99.90;;;;;;5080437;28;20218;-67
2022/07/30 00:14:33;;;;;;;5.95;4.30;;;17.90;99.90;;;;;;5068141;28;20219;-67
2022/07/30 00:17:02;;;;;;;6.18;4.80;;;17.90;99.90;;;;;;5071185;28;20968;-67
2022/07/30 00:19:28;;;;;;;6.15;4.28;;;17.90;99.90;;;;;;5082854;28;20588;-67
2022/07/30 00:21:54;;;;;;;7.43;5.25;;;17.90;99.90;;;;;;5057196;28;20181;-67
2022/07/30 00:24:20;;;;;;;11.25;6.57;;;17.80;99.90;;;;;;5053871;28;20652;-67
2022/07/30 00:26:46;;;;;;;12.90;5.78;;;17.90;99.90;;;;;;5075827;28;20183;-68
2022/07/30 00:29:12;;;;;;;9.27;4.75;;;17.80;99.90;;;;;;5088562;28;20185;-67
2022/07/30 00:31:38;;;;;;;7.60;5.53;;;17.80;99.90;;;;;;5092854;28;20216;-67
2022/07/30 00:34:03;;;;;;;7.80;5.60;;;17.70;99.90;;;;;;5074798;28;20189;-67
2022/07/30 00:36:29;;;;;;;8.68;6.05;;;17.70;99.90;;;;;;5074098;28;20204;-67
2022/07/30 00:38:55;;;;;;;11.90;5.78;;;17.70;99.90;;;;;;5092954;28;20227;-68
2022/07/30 00:41:21;;;;;;;7.13;4.80;;;17.70;99.90;;;;;;5074552;28;20233;-67
2022/07/30 00:43:46;;;;;;;7.85;5.55;;;17.60;99.90;;;;;;5088337;28;20630;-67
2022/07/30 00:46:13;;;;;;;6.13;4.90;;;17.60;99.90;;;;;;5082307;28;20209;-67
2022/07/30 00:48:39;;;;;;;14.15;5.97;;;17.70;99.90;;;;;;5072365;28;20192;-67
2022/07/30 00:51:05;;;;;;;13.00;5.65;;;17.60;99.90;;;;;;5072012;28;20322;-68
2022/07/30 00:53:31;;;;;;;9.57;6.68;;;17.60;99.90;;;;;;5080537;28;20268;-67
2022/07/30 00:55:57;;;;;;;9.00;5.18;;;17.60;99.90;;;;;;5073450;28;20195;-67
2022/07/30 00:58:22;;;;;;;11.60;6.22;;;17.60;99.90;;;;;;5054205;28;20296;-67
2022/07/30 01:00:48;;;;;;;10.25;6.50;;;17.60;99.90;;;;;;5072839;28;20276;-68
2022/07/30 01:03:14;;;;;;;15.00;5.90;;;17.60;99.90;;;;;;5070108;28;20629;-67
2022/07/30 01:05:39;;;;;;;10.02;6.47;;;17.50;99.90;;;;;;5074539;28;20641;-67
2022/07/30 01:08:05;;;;;;;7.35;6.22;;;17.50;99.90;;;;;;5055646;28;20653;-67
2022/07/30 01:10:31;;;;;;;12.80;7.20;;;17.50;99.90;;;;;;5062531;28;20581;-67
2022/07/30 01:12:58;;;;;;;11.88;6.35;;;17.50;99.90;;;;;;5071690;28;20704;-67
2022/07/30 01:15:24;;;;;;;14.32;7.35;;;17.50;99.90;;;;;;5076546;28;20204;-67
2022/07/30 01:17:52;;;;;;;11.13;6.43;;;17.50;99.90;;;;;;5072956;28;20192;-68
2022/07/30 01:20:25;;;;;;;13.43;7.88;;;17.50;99.90;;;;;;5080019;28;20226;-68
2022/07/30 01:23:03;;;;;;;13.60;7.15;;;17.50;99.90;;;;;;5092403;28;20188;-67
2022/07/30 01:25:53;;;;;;;8.45;6.55;;;17.40;99.90;;;;;;5090139;28;20177;-67
2022/07/30 01:28:24;;;;;;;12.57;7.03;;;17.40;99.90;;;;;;5092683;28;20343;-67
2022/07/30 01:30:51;;;;;;;14.15;8.48;;;17.30;99.90;;;;;;5082897;28;20170;-68
2022/07/30 01:33:19;;;;;;;13.23;8.13;;;17.30;99.90;;;;;;5088395;28;20595;-67
2022/07/30 01:35:47;;;;;;;8.88;6.63;;;17.30;99.90;;;;;;5094881;28;20577;-67
2022/07/30 01:38:16;;;;;;;12.43;7.63;;;17.30;99.90;;;;;;5094126;28;20188;-68
2022/07/30 01:40:43;;;;;;;11.70;8.73;;;17.30;99.90;;;;;;5085439;28;20181;-68
2022/07/30 01:43:10;;;;;;;11.90;7.15;;;17.20;99.90;;;;;;5080497;28;20224;-68
2022/07/30 01:45:37;;;;;;;10.77;6.90;;;17.30;99.90;;;;;;5042232;28;20191;-68
2022/07/30 01:48:05;;;;;;;12.30;8.02;;;17.20;99.90;;;;;;5088156;28;20184;-68
2022/07/30 01:50:32;;;;;;;10.27;7.55;;;17.20;99.90;;;;;;5086474;28;20233;-68
2022/07/30 01:52:59;;;;;;;10.75;7.18;;;17.20;99.90;;;;;;5083955;28;20263;-67
2022/07/30 01:55:38;;;;;;;8.82;7.18;;;17.20;99.90;;;;;;5089675;28;20184;-67
2022/07/30 01:58:06;;;;;;;12.75;6.80;;;17.20;99.90;;;;;;5086196;28;20523;-67
2022/07/30 02:00:35;;;;;;;9.13;6.38;;;17.20;99.90;;;;;;5078005;28;20644;-68
2022/07/30 02:03:01;;;;;;;13.50;7.78;;;17.20;99.90;;;;;;5095288;28;20188;-72
2022/07/30 02:05:30;;;;;;;14.30;7.72;;;17.20;99.90;;;;;;5095652;28;20200;-67
2022/07/30 02:08:00;;;;;;;9.40;7.05;;;17.20;99.90;;;;;;5061314;28;20177;-67
2022/07/30 02:10:54;;;;;;;11.25;7.38;;;17.20;99.90;;;;;;5085832;28;20264;-68
2022/07/30 02:13:24;;;;;;;12.77;6.13;;;17.20;99.90;;;;;;5088313;28;20208;-67
2022/07/30 02:16:15;;;;;;;9.63;7.28;;;17.10;99.90;;;;;;5094598;28;20180;-68
2022/07/30 02:18:55;;;;;;;10.55;7.45;;;17.10;99.90;;;;;;5083552;28;20572;-67
2022/07/30 02:21:23;;;;;;;12.73;6.78;;;17.10;99.90;;;;;;5083319;28;20593;-68
2022/07/30 02:23:50;;;;;;;10.70;6.70;;;17.20;99.90;;;;;;5085635;28;20318;-68
2022/07/30 02:26:19;;;;;;;13.07;7.35;;;17.20;99.90;;;;;;5068724;28;20185;-68
2022/07/30 02:28:51;;;;;;;12.95;7.82;;;17.30;99.90;;;;;;5078563;28;20181;-67
2022/07/30 02:31:21;;;;;;;12.15;7.03;;;17.20;99.90;;;;;;5094913;28;20177;-68
2022/07/30 02:33:49;;;;;;;10.75;6.72;;;17.20;99.90;;;;;;5096100;28;20184;-67
2022/07/30 02:36:17;;;;;;;13.63;7.60;;;17.10;99.90;;;;;;5089592;28;20185;-68
2022/07/30 02:38:44;;;;;;;10.95;7.53;;;17.10;99.90;;;;;;5066648;28;20177;-67
2022/07/30 02:41:14;;;;;;;13.07;7.50;;;17.10;99.90;;;;;;5093462;28;20200;-67
2022/07/30 02:43:41;;;;;;;10.73;6.75;;;17.10;99.90;;;;;;5095194;28;20184;-68
2022/07/30 02:46:10;;;;;;;14.77;8.50;;;17.00;99.90;;;;;;5094841;28;20307;-73
2022/07/30 02:48:38;;;;;;;10.95;7.38;;;17.00;99.90;;;;;;5078314;28;20259;-68
2022/07/30 02:51:07;;;;;;;14.85;6.57;;;17.00;99.90;;;;;;5068045;28;20609;-68
2022/07/30 02:53:33;;;;;;;12.43;8.45;;;16.90;99.90;;;;;;5063274;28;20189;-68
2022/07/30 02:56:00;;;;;;;11.45;6.28;;;16.80;99.90;;;;;;5068790;28;20238;-67
2022/07/30 02:58:28;;;;;;;11.73;7.28;;;16.80;99.90;;;;;;5077085;28;20237;-67
2022/07/30 03:00:55;;;;;;;12.18;7.90;;;16.80;99.90;;;;;;5075240;28;20184;-71
2022/07/30 03:03:27;;;;;;;16.17;9.23;;;16.80;99.90;;;;;;5086722;28;20222;-68
2022/07/30 03:05:54;;;;;;;17.33;7.95;;;16.80;99.90;;;;;;5076703;28;20539;-68
2022/07/30 03:08:20;;;;;;;10.90;7.28;;;16.80;99.90;;;;;;5093523;28;20310;-70
2022/07/30 03:10:47;;;;;;;15.27;8.23;;;16.80;99.90;;;;;;5059248;28;20208;-73
2022/07/30 03:13:14;;;;;;;12.60;7.18;;;16.70;99.90;;;;;;5073946;28;20201;-70
2022/07/30 03:15:47;;;;;;;12.73;7.90;;;16.70;99.90;;;;;;5088003;28;20527;-68
2022/07/30 03:18:15;;;;;;;11.57;7.65;;;16.70;99.90;;;;;;5092999;28;20533;-69
2022/07/30 03:20:45;;;;;;;12.52;8.40;;;16.70;99.90;;;;;;5093862;28;20806;-68
2022/07/30 03:23:12;;;;;;;10.90;6.57;;;16.60;99.90;;;;;;5093538;28;20194;-69
2022/07/30 03:25:41;;;;;;;11.90;7.15;;;16.50;99.90;;;;;;5092799;28;20190;-68
2022/07/30 03:28:07;;;;;;;13.93;8.90;;;16.50;99.90;;;;;;5071944;28;20181;-68
2022/07/30 03:30:34;;;;;;;11.95;8.02;;;16.50;99.90;;;;;;5091983;28;20657;-69
2022/07/30 03:33:00;;;;;;;13.98;8.40;;;16.40;99.90;;;;;;5094179;28;20209;-68
2022/07/30 03:35:26;;;;;;;12.38;8.15;;;16.50;99.90;;;;;;5092997;28;20548;-68
2022/07/30 03:37:54;;;;;;;14.48;8.63;;;16.50;99.90;;;;;;5070390;28;20645;-68
2022/07/30 03:40:20;;;;;;;19.23;8.80;;;16.50;99.90;;;;;;5089896;28;20276;-68
2022/07/30 03:42:47;;;;;;;12.18;8.38;;;16.50;99.90;;;;;;5092597;28;20659;-68
2022/07/30 03:45:14;;;;;;;14.65;10.07;;;16.40;99.90;;;;;;5057238;28;20318;-68
2022/07/30 03:47:42;;;;;;;10.95;8.10;;;16.40;99.90;;;;;;5090840;28;20646;-67
2022/07/30 03:50:09;;;;;;;13.05;9.73;;;16.40;99.90;;;;;;5092966;28;20650;-68
2022/07/30 03:52:39;;;;;;;13.18;9.38;;;16.40;99.90;;;;;;5075188;28;20205;-68
2022/07/30 03:55:07;;;;;;;16.92;8.52;;;16.40;99.90;;;;;;5075415;28;20172;-68
2022/07/30 03:57:32;;;;;;;13.93;9.32;;;16.30;99.90;;;;;;5069617;28;20216;-68
2022/07/30 03:59:58;;;;;;;18.55;10.82;;;16.30;99.90;;;;;;5092478;28;20648;-68
2022/07/30 04:02:24;;;;;;;14.13;9.20;;;16.30;99.90;;;;;;5093769;28;20695;-68
2022/07/30 04:04:50;;;;;;;17.30;9.48;;;16.40;99.90;;;;;;5082279;28;20184;-68
2022/07/30 04:07:16;;;;;;;15.63;8.80;;;16.40;99.90;;;;;;5084900;28;20193;-68
2022/07/30 04:09:41;;;;;;;16.30;9.88;;;16.40;99.90;;;;;;5092923;28;20210;-68
2022/07/30 04:12:07;;;;;;;20.52;10.07;;;16.40;99.90;;;;;;5087396;28;20209;-67
2022/07/30 04:14:44;;;;;;;20.60;10.70;;;16.40;99.90;;;;;;5087333;28;20592;-68
2022/07/30 04:17:42;;;;;;;15.13;10.35;;;16.40;99.90;;;;;;5077491;28;20550;-68
2022/07/30 04:20:15;;;;;;;15.80;10.05;;;16.40;99.90;;;;;;5061509;28;20250;-68
2022/07/30 04:22:42;;;;;;;19.42;11.90;;;16.40;99.90;;;;;;5084905;28;20193;-68
2022/07/30 04:25:08;;;;;;;20.38;12.05;;;16.50;99.90;;;;;;5061368;28;20184;-68
2022/07/30 04:27:38;;;;;;;13.93;11.30;;;16.60;99.90;;;;;;5074667;28;20249;-68
2022/07/30 04:30:05;;;;;;;19.63;10.77;;;16.60;99.90;;;;;;5074731;28;20193;-68
2022/07/30 04:32:31;;;;;;;19.23;11.05;;;16.60;99.90;;;;;;5088842;28;20258;-68
2022/07/30 04:34:57;;;;;;;16.63;10.23;;;16.70;99.90;;;;;;5071868;28;20224;-68
2022/07/30 04:37:25;;;;;;;16.90;10.95;;;16.70;99.90;;;;;;5071941;28;20212;-68
2022/07/30 04:39:56;;;;;;;17.70;11.25;;;16.80;99.90;;;;;;5089269;28;20181;-68
2022/07/30 04:42:23;;;;;;;17.13;11.60;;;16.80;99.90;;;;;;5085891;28;20197;-68
2022/07/30 04:44:49;;;;;;;20.40;12.65;;;16.90;99.90;;;;;;5074309;28;20181;-68
2022/07/30 04:47:15;;;;;;;16.42;10.35;;;16.90;99.90;;;;;;5092133;28;20188;-71
2022/07/30 04:49:42;;;;;;;14.02;9.82;;;17.00;99.90;;;;;;5054727;28;20598;-68
2022/07/30 04:52:13;;;;;;;21.10;11.10;;;17.10;99.90;;;;;;5091916;28;20247;-69
2022/07/30 04:54:50;;;;;;;21.60;11.35;;;17.20;99.90;;;;;;5083795;28;20200;-68
2022/07/30 04:57:17;;;;;;;15.88;10.02;;;17.30;99.90;;;;;;5078567;28;20245;-68
2022/07/30 04:59:43;;;;;;;14.55;10.77;;;17.30;99.90;;;;;;5092745;28;20173;-68
2022/07/30 05:02:10;;;;;;;17.35;11.05;;;17.40;99.90;;;;;;5090540;28;20215;-67
2022/07/30 05:04:39;;;;;;;24.30;10.50;;;17.50;99.90;;;;;;5091955;28;20187;-67
2022/07/30 05:07:05;;;;;;;18.25;10.55;;;17.50;99.90;;;;;;5086716;28;20638;-67
2022/07/30 05:09:32;;;;;;;15.18;9.82;;;17.50;99.90;;;;;;5092229;28;20645;-68
2022/07/30 05:11:58;;;;;;;17.90;10.98;;;17.70;99.90;;;;;;5088274;28;20254;-67
2022/07/30 05:14:25;;;;;;;16.98;11.63;;;17.80;99.90;;;;;;5092305;28;20193;-67
2022/07/30 05:16:51;;;;;;;17.30;11.13;;;17.80;99.90;;;;;;5088727;28;20186;-67
2022/07/30 05:19:20;;;;;;;13.90;9.43;;;18.00;99.90;;;;;;5091564;28;20184;-68
2022/07/30 05:21:46;;;;;;;16.88;9.75;;;18.00;99.90;;;;;;5092335;28;20237;-67
2022/07/30 05:24:12;;;;;;;15.65;10.25;;;18.10;99.90;;;;;;5065680;28;20181;-67
2022/07/30 05:26:38;;;;;;;18.95;10.85;;;18.20;99.90;;;;;;5073888;28;20215;-67
2022/07/30 05:29:04;;;;;;;16.65;11.75;;;18.30;99.90;;;;;;5068711;28;20193;-67
2022/07/30 05:31:30;;;;;;;21.80;12.00;;;18.40;99.90;;;;;;5085762;28;20581;-67
2022/07/30 05:33:56;;;;;;;15.00;11.25;;;18.50;99.90;;;;;;5089516;28;20216;-67
2022/07/30 05:36:21;;;;;;;19.50;12.27;;;18.70;99.90;;;;;;5079542;28;20672;-67
2022/07/30 05:38:48;;;;;;;21.42;12.32;;;19.00;99.90;;;;;;5067462;28;20181;-68
2022/07/30 05:41:13;;;;;;;15.38;9.52;;;19.20;99.90;;;;;;5079503;28;20186;-72
2022/07/30 05:43:39;;;;;;;17.75;7.97;;;19.40;99.90;;;;;;5090307;28;20199;-67
2022/07/30 05:46:05;;;;;;;14.98;7.28;;;19.40;99.90;;;;;;5081606;28;20228;-67
2022/07/30 05:48:34;;;;;;;16.60;8.27;;;19.50;99.90;;;;;;5088568;28;20321;-68
2022/07/30 05:51:03;;;;;;;15.38;8.98;;;19.50;99.90;;;;;;5092047;28;20271;-67
2022/07/30 05:53:28;;;;;;;12.55;7.75;;;19.50;99.90;;;;;;5088965;28;20304;-67
2022/07/30 05:55:54;;;;;;;11.88;7.65;;;19.50;99.90;;;;;;5089492;28;20315;-67
2022/07/30 05:58:20;;;;;;;17.77;9.02;;;19.40;99.90;;;;;;5080082;28;20231;-67
2022/07/30 06:00:45;;;;;;;17.30;9.38;;;19.30;99.90;;;;;;5079810;28;20197;-66
2022/07/30 06:03:11;;;;;;;11.75;7.88;;;19.20;99.90;;;;;;5054725;28;20615;-67
2022/07/30 06:05:37;;;;;;;17.17;9.13;;;19.10;99.90;;;;;;5062472;28;20189;-66
2022/07/30 06:08:03;;;;;;;12.38;7.22;;;19.00;99.90;;;;;;5070278;28;20570;-66
2022/07/30 06:10:29;;;;;;;15.43;8.27;;;19.00;99.90;;;;;;5090840;28;20522;-67
2022/07/30 06:12:55;;;;;;;12.25;8.15;;;18.90;99.90;;;;;;5077676;28;20205;-68
2022/07/30 06:15:21;;;;;;;24.95;10.15;;;18.80;99.90;;;;;;5084729;28;20196;-67
2022/07/30 06:17:47;;;;;;;10.25;8.27;;;18.90;99.90;;;;;;5084408;28;20212;-68
2022/07/30 06:20:14;;;;;;;11.60;8.80;;;18.90;99.90;;;;;;5063619;28;20193;-67
2022/07/30 06:22:40;;;;;;;13.98;9.25;;;18.90;99.90;;;;;;5088276;28;20199;-68
2022/07/30 06:25:07;;;;;;;15.98;8.50;;;18.80;99.90;;;;;;5095039;28;20177;-67
2022/07/30 06:27:33;;;;;;;13.00;8.18;;;18.80;99.90;;;;;;5089364;28;20189;-65
2022/07/30 06:30:00;;;;;;;9.32;7.30;;;18.80;99.90;;;;;;5088915;28;20585;-65
2022/07/30 06:32:28;;;;;;;9.57;6.50;;;18.90;99.90;;;;;;5082419;28;20253;-65
2022/07/30 06:34:54;;;;;;;10.90;7.72;;;19.00;99.90;;;;;;5066617;28;20242;-65
2022/07/30 06:37:20;;;;;;;13.20;7.68;;;19.10;99.90;;;;;;5082751;28;20552;-65
2022/07/30 06:39:45;;;;;;;11.20;6.78;;;19.00;99.90;;;;;;5063640;28;20724;-67
2022/07/30 06:42:11;;;;;;;9.73;6.25;;;19.10;99.90;;;;;;5064722;28;20568;-66
2022/07/30 06:44:37;;;;;;;7.88;5.43;;;19.10;99.90;;;;;;5075849;28;20295;-65
2022/07/30 06:47:02;;;;;;;14.13;7.95;;;19.40;99.90;;;;;;5066670;28;20217;-65
2022/07/30 06:49:31;;;;;;;9.65;6.38;;;19.50;99.90;;;;;;5078465;28;20227;-65
2022/07/30 06:51:57;;;;;;;8.20;5.35;;;19.50;99.90;;;;;;5063912;28;20239;-66
2022/07/30 06:54:23;;;;;;;5.93;4.80;;;19.50;99.90;;;;;;5074934;28;20228;-65
2022/07/30 06:56:48;;;;;;;12.27;6.00;;;19.50;99.90;;;;;;5074255;28;20615;-66
2022/07/30 06:59:14;;;;;;;7.00;5.43;;;19.50;99.90;;;;;;5082438;28;20189;-66
2022/07/30 07:01:40;;;;;;;6.30;4.80;;;19.70;99.90;;;;;;5055564;28;20189;-66
2022/07/30 07:04:05;;;;;;;5.15;4.40;;;19.70;99.90;;;;;;5056547;28;20189;-65
2022/07/30 07:06:31;;;;;;;8.13;4.22;;;19.70;99.90;;;;;;5075376;28;20208;-66
2022/07/30 07:08:57;;;;;;;10.77;4.93;;;19.80;99.90;;;;;;5076249;28;20192;-66
2022/07/30 07:11:23;;;;;;;6.97;3.45;;;19.90;99.90;;;;;;5086802;28;20246;-66
2022/07/30 07:13:48;;;;;;;5.05;3.90;;;19.90;99.90;;;;;;5076535;28;20185;-65
2022/07/30 07:16:14;;;;;;;8.10;4.82;;;20.20;99.90;;;;;;5071007;28;20213;-67
2022/07/30 07:18:40;;;;;;;4.97;2.33;;;20.10;99.90;;;;;;5076471;28;20188;-66
2022/07/30 07:21:06;;;;;;;4.15;2.70;;;20.10;99.90;;;;;;5093964;28;20195;-66
2022/07/30 07:23:32;;;;;;;2.90;2.58;;;20.20;99.90;;;;;;5056747;28;20220;-66
2022/07/30 07:25:59;;;;;;;6.95;2.72;;;20.40;99.90;;;;;;5063107;28;20220;-66
2022/07/30 07:28:24;;;;;;;2.92;2.47;;;20.60;99.90;;;;;;5088455;28;20181;-66
2022/07/30 07:30:50;;;;;;;5.32;2.65;;;20.70;99.90;;;;;;5087618;28;20184;-66
2022/07/30 07:33:16;;;;;;;2.47;2.28;;;20.80;99.90;;;;;;5071073;28;20235;-66
2022/07/30 07:35:41;;;;;;;2.58;2.17;;;21.00;99.90;;;;;;5057481;28;20191;-66
2022/07/30 07:38:07;;;;;;;3.50;2.22;;;21.70;99.90;;;;;;5084615;28;20181;-66
2022/07/30 07:40:32;;;;;;;2.15;1.98;;;23.40;99.90;;;;;;5073768;28;20715;-70
2022/07/30 07:42:58;;;;;;;1.52;1.25;;;25.40;99.90;;;;;;5070648;28;20590;-66
2022/07/30 07:45:24;;;;;;;3.38;2.85;;;27.50;99.90;;;;;;5069005;28;20180;-66
2022/07/30 07:47:49;;;;;;;1.52;1.15;;;29.20;99.90;;;;;;5068108;28;20551;-66
2022/07/30 07:50:17;;;;;;;3.45;1.90;;;30.80;99.90;;;;;;5071217;28;20180;-66
2022/07/30 07:52:42;;;;;;;1.35;1.25;;;31.90;99.90;;;;;;5066085;28;20216;-67
2022/07/30 07:55:08;;;;;;;1.40;1.30;;;32.50;99.90;;;;;;5053657;28;20596;-66
2022/07/30 07:57:42;;;;;;;1.55;1.10;;;33.20;99.90;;;;;;5074875;28;20227;-66
2022/07/30 08:00:09;;;;;;;1.30;1.20;;;33.80;99.90;;;;;;5061767;28;20187;-66
2022/07/30 08:02:35;;;;;;;1.50;0.80;;;34.20;99.90;;;;;;5065661;28;20180;-68
2022/07/30 08:05:01;;;;;;;1.20;1.10;;;33.80;99.90;;;;;;5084317;28;20204;-65
2022/07/30 08:07:28;;;;;;;1.15;1.05;;;34.50;99.90;;;;;;5093645;28;20451;-66
2022/07/30 08:09:54;;;;;;;2.20;0.75;;;35.10;99.90;;;;;;5089904;28;20197;-66
2022/07/30 08:12:20;;;;;;;2.65;1.20;;;35.40;99.90;;;;;;5065571;28;20219;-66
2022/07/30 08:14:45;;;;;;;2.00;1.00;;;34.70;99.90;;;;;;5090500;28;21661;-70
2022/07/30 08:17:11;;;;;;;2.50;0.73;;;34.90;99.90;;;;;;5079679;28;20184;-68
2022/07/30 08:19:37;;;;;;;2.65;1.08;;;35.30;99.90;;;;;;5093396;28;20624;-71
2022/07/30 08:22:02;;;;;;;0.93;0.90;;;35.50;99.90;;;;;;5075262;28;20216;-68
2022/07/30 08:24:28;;;;;;;2.85;1.00;;;35.60;99.90;;;;;;5062318;28;20213;-68
2022/07/30 08:26:54;;;;;;;1.35;0.98;;;35.60;99.90;;;;;;5078610;28;20263;-68
2022/07/30 08:29:19;;;;;;;1.10;1.02;;;35.50;99.90;;;;;;5083353;28;20202;-68
2022/07/30 08:31:45;;;;;;;0.80;0.80;;;34.90;99.90;;;;;;5067017;28;20204;-68
2022/07/30 08:34:12;;;;;;;1.95;0.60;;;35.20;99.90;;;;;;5071691;28;20192;-68
2022/07/30 08:36:37;;;;;;;7.22;2.58;;;34.90;99.90;;;;;;5068496;28;20191;-73
2022/07/30 08:39:03;;;;;;;0.73;0.73;;;35.10;99.90;;;;;;5087598;28;20185;-65
2022/07/30 08:41:30;;;;;;;1.30;0.90;;;34.40;99.90;;;;;;5081203;28;20191;-66
2022/07/30 08:44:00;;;;;;;1.23;0.70;;;34.10;99.90;;;;;;5066705;28;20730;-66
2022/07/30 08:46:30;;;;;;;0.60;0.60;;;34.70;99.90;;;;;;5089000;28;20372;-66
2022/07/30 08:48:56;;;;;;;2.42;0.85;;;34.80;99.90;;;;;;5087061;28;20176;-66
2022/07/30 08:51:23;;;;;;;1.23;0.93;;;34.00;99.90;;;;;;5091815;28;20184;-67
2022/07/30 08:53:49;;;;;;;1.83;1.70;;;33.40;99.90;;;;;;5079817;28;20225;-68
2022/07/30 08:56:15;;;;;;;0.60;0.60;;;33.60;99.90;;;;;;5092613;28;20188;-68
2022/07/30 08:58:41;;;;;;;2.45;1.30;;;34.60;99.70;;;;;;5084796;28;20176;-68
2022/07/30 09:01:08;;;;;;;0.70;0.70;;;35.00;98.80;;;;;;5065550;28;20260;-66
2022/07/30 09:03:36;;;;;;;2.53;1.67;;;35.60;99.20;;;;;;5092080;28;20263;-66
2022/07/30 09:06:03;;;;;;;1.55;1.30;;;35.70;99.40;;;;;;5073807;28;20202;-66
2022/07/30 09:08:29;;;;;;;1.00;0.90;;;36.30;99.50;;;;;;5092870;28;20183;-66
2022/07/30 09:10:55;;;;;;;1.42;1.20;;;36.40;98.50;;;;;;5087973;28;20230;-66
2022/07/30 09:13:36;;;;;;;1.75;1.13;;;36.40;98.30;;;;;;5079749;28;20618;-66
2022/07/30 09:16:03;;;;;;;1.33;1.23;;;36.30;98.40;;;;;;5068151;28;20208;-66
2022/07/30 09:18:32;;;;;;;0.73;0.73;;;34.40;98.60;;;;;;5071031;28;20184;-66
2022/07/30 09:21:00;;;;;;;1.65;0.98;;;33.90;99.50;;;;;;5086419;28;20172;-66
2022/07/30 09:23:26;;;;;;;1.35;1.13;;;33.60;99.60;;;;;;5082647;28;20189;-66
2022/07/30 09:25:52;;;;;;;1.02;0.88;;;33.30;99.50;;;;;;5087871;28;20624;-66
2022/07/30 09:28:28;;;;;;;1.67;1.17;;;32.80;99.90;;;;;;5072901;28;20230;-66
2022/07/30 09:30:55;;;;;;;1.27;1.17;;;33.00;99.90;;;;;;5090213;28;20168;-68
2022/07/30 09:33:37;;;;;;;3.42;1.40;;;32.50;99.90;;;;;;5070049;28;20742;-67
2022/07/30 09:36:15;;;;;;;4.15;1.48;;;31.70;99.90;;;;;;5063615;28;20181;-66
2022/07/30 09:38:50;;;;;;;0.80;0.80;;;31.10;99.90;;;;;;5091701;28;20236;-66
2022/07/30 09:41:31;;;;;;;1.80;1.65;;;30.50;99.90;;;;;;5091716;28;20528;-66
2022/07/30 09:43:57;;;;;;;2.03;0.85;;;30.40;99.90;;;;;;5064027;28;20176;-66
2022/07/30 09:46:44;;;;;;;1.33;1.13;;;30.00;99.90;;;;;;5087542;28;20538;-66
2022/07/30 09:49:17;;;;;;;2.63;1.50;;;29.50;99.90;;;;;;5074054;28;20192;-66
2022/07/30 09:51:43;;;;;;;4.78;1.50;;;29.40;99.90;;;;;;5090520;28;20216;-66
2022/07/30 09:54:09;;;;;;;2.92;1.77;;;29.30;99.90;;;;;;5057043;28;20225;-67
2022/07/30 09:56:34;;;;;;;3.38;1.13;;;29.40;99.90;;;;;;5091961;28;20191;-67
2022/07/30 09:59:00;;;;;;;1.33;1.25;;;29.40;99.90;;;;;;5075588;28;20196;-66
2022/07/30 10:01:27;;;;;;;2.03;1.17;;;29.60;99.90;;;;;;5076075;28;20261;-66
2022/07/30 10:03:53;;;;;;;1.10;1.10;;;29.50;99.90;;;;;;5093347;28;20176;-67
2022/07/30 10:06:32;;;;;;;4.22;1.75;;;29.50;99.90;;;;;;5093853;28;20196;-67
2022/07/30 10:08:58;;;;;;;2.65;1.33;;;29.50;99.90;;;;;;5073404;28;20184;-67
2022/07/30 10:11:25;;;;;;;1.30;1.15;;;29.00;99.90;;;;;;5075478;28;20184;-66
2022/07/30 10:13:54;;;;;;;1.85;1.10;;;29.00;99.90;;;;;;5093842;28;20690;-67
2022/07/30 10:16:20;;;;;;;2.08;1.17;;;29.10;99.90;;;;;;5094211;28;20695;-67
2022/07/30 10:18:45;;;;;;;1.63;1.27;;;29.10;99.90;;;;;;5073808;28;20546;-67
2022/07/30 10:21:12;;;;;;;1.63;1.52;;;29.20;99.90;;;;;;5076538;28;20275;-66
2022/07/30 10:23:40;;;;;;;5.43;2.13;;;29.30;99.90;;;;;;5086713;28;20655;-67
2022/07/30 10:26:07;;;;;;;1.33;1.33;;;29.30;99.90;;;;;;5095346;28;20189;-66
2022/07/30 10:28:33;;;;;;;1.77;1.58;;;29.30;99.90;;;;;;5076282;28;20202;-67
2022/07/30 10:30:59;;;;;;;1.42;1.33;;;29.20;99.90;;;;;;5092316;28;20207;-67
2022/07/30 10:33:29;;;;;;;3.08;1.58;;;29.00;99.90;;;;;;5095290;28;20676;-66
2022/07/30 10:35:56;;;;;;;1.80;1.40;;;29.00;99.90;;;;;;5061870;28;20296;-66
2022/07/30 10:38:27;;;;;;;7.65;1.88;;;28.90;99.90;;;;;;5087444;28;20188;-68
2022/07/30 10:41:06;;;;;;;3.65;1.67;;;29.40;99.90;;;;;;5069481;28;20176;-66
2022/07/30 10:44:03;;;;;;;1.33;1.23;;;29.50;99.90;;;;;;5075840;28;20253;-67
2022/07/30 10:47:02;;;;;;;1.15;1.15;;;29.60;99.90;;;;;;5033970;28;20217;-66
2022/07/30 10:49:28;;;;;;;1.50;1.35;;;29.90;99.90;;;;;;5092823;28;20211;-67
2022/07/30 10:51:54;;;;;;;1.48;1.38;;;30.10;99.90;;;;;;5078520;28;20200;-67
2022/07/30 10:54:32;;;;;;;0.95;0.95;;;30.00;99.90;;;;;;5057617;28;20189;-67
2022/07/30 10:57:05;;;;;;;8.18;1.83;;;30.00;99.90;;;;;;5086365;28;20329;-67
2022/07/30 10:59:59;;;;;;;1.70;1.60;;;30.40;99.90;;;;;;5066323;28;20185;-67
2022/07/30 11:02:30;;;;;;;1.50;1.40;;;30.50;99.90;;;;;;5081425;28;20258;-67
2022/07/30 11:05:17;;;;;;;3.22;1.70;;;30.50;99.90;;;;;;5094817;28;20188;-66
2022/07/30 11:07:44;;;;;;;2.05;1.77;;;30.50;99.90;;;;;;5082758;28;20538;-66
2022/07/30 11:10:36;;;;;;;1.00;1.00;;;30.20;99.90;;;;;;5093969;28;20219;-67
2022/07/30 11:13:02;;;;;;;1.40;1.30;;;30.10;99.90;;;;;;5092518;28;20207;-67
2022/07/30 11:15:52;;;;;;;2.35;1.20;;;30.10;99.90;;;;;;5092923;28;20222;-67
2022/07/30 11:18:18;;;;;;;1.60;1.50;;;30.00;99.90;;;;;;5075407;28;20192;-68
2022/07/30 11:21:12;;;;;;;4.07;1.73;;;29.80;99.90;;;;;;5072033;28;20543;-67
2022/07/30 11:23:39;;;;;;;1.63;1.45;;;29.80;99.90;;;;;;5085831;28;20267;-67
2022/07/30 11:26:05;;;;;;;1.35;1.25;;;30.10;99.90;;;;;;5092377;28;20225;-67
2022/07/30 11:28:41;;;;;;;3.33;1.75;;;30.40;99.90;;;;;;5082719;28;20187;-69
2022/07/30 11:31:28;;;;;;;2.28;1.58;;;30.60;99.90;;;;;;5080307;28;20258;-67
2022/07/30 11:34:16;;;;;;;1.85;1.75;;;30.80;99.90;;;;;;5085815;28;20184;-67
2022/07/30 11:37:04;;;;;;;2.83;1.25;;;30.80;99.90;;;;;;5093632;28;20187;-67
2022/07/30 11:39:52;;;;;;;1.15;1.15;;;30.80;99.90;;;;;;5091596;28;20336;-67
2022/07/30 11:42:30;;;;;;;2.22;2.08;;;30.80;99.90;;;;;;5066748;28;20654;-67
2022/07/30 11:45:14;;;;;;;1.35;1.25;;;30.90;99.90;;;;;;5079983;28;20206;-68
2022/07/30 11:47:45;;;;;;;5.50;1.70;;;31.00;99.90;;;;;;5073456;28;20192;-68
2022/07/30 11:50:31;;;;;;;1.45;1.23;;;31.00;99.90;;;;;;5068191;28;20196;-67
2022/07/30 11:53:06;;;;;;;1.50;1.45;;;30.80;99.90;;;;;;5090654;28;20227;-67
2022/07/30 11:55:43;;;;;;;1.30;1.30;;;31.10;99.90;;;;;;5082985;28;20184;-67
2022/07/30 11:58:22;;;;;;;1.60;1.50;;;30.80;99.90;;;;;;5088677;28;20240;-66
2022/07/30 12:00:49;;;;;;;3.58;1.63;;;30.70;99.90;;;;;;5094001;28;20633;-65
2022/07/30 12:03:17;;;;;;;5.20;1.75;;;30.30;99.90;;;;;;5092975;28;20203;-66
2022/07/30 12:05:44;;;;;;;2.78;1.40;;;30.20;99.90;;;;;;5093022;28;20249;-66
2022/07/30 12:08:11;;;;;;;1.65;1.55;;;29.70;99.90;;;;;;5082587;28;20751;-67
2022/07/30 12:10:40;;;;;;;2.00;1.77;;;29.30;99.90;;;;;;5081914;28;20184;-67
2022/07/30 12:13:13;;;;;;;1.60;1.50;;;29.40;99.90;;;;;;5087628;28;20220;-74
2022/07/30 12:15:44;;;;;;;1.38;1.30;;;29.60;99.90;;;;;;5090038;28;20183;-67
2022/07/30 12:18:12;;;;;;;2.40;1.92;;;29.60;99.90;;;;;;5087602;28;20196;-66
2022/07/30 12:20:41;;;;;;;4.38;1.65;;;29.70;99.90;;;;;;5086787;28;20208;-66
2022/07/30 12:23:13;;;;;;;3.25;1.70;;;29.50;99.90;;;;;;5078647;28;20665;-66
2022/07/30 12:25:40;;;;;;;1.67;1.58;;;29.20;99.90;;;;;;5078664;28;20285;-65
2022/07/30 12:28:07;;;;;;;1.92;1.75;;;29.10;99.90;;;;;;5090269;28;20598;-67
2022/07/30 12:30:33;;;;;;;5.15;1.55;;;29.10;99.90;;;;;;5065709;28;20188;-66
2022/07/30 12:33:00;;;;;;;1.25;1.15;;;28.90;99.90;;;;;;5058322;28;20204;-67
2022/07/30 12:35:49;;;;;;;1.58;1.48;;;28.70;99.90;;;;;;5053784;28;20715;-67
2022/07/30 12:38:16;;;;;;;3.35;1.70;;;28.80;99.90;;;;;;5087492;28;20168;-71
2022/07/30 12:40:54;;;;;;;2.20;2.00;;;29.10;99.90;;;;;;5092878;28;20195;-67
2022/07/30 12:43:41;;;;;;;1.83;1.65;;;29.40;99.90;;;;;;5090195;28;20284;-66
2022/07/30 12:46:07;;;;;;;2.08;1.95;;;29.10;99.90;;;;;;5081542;28;20555;-66
2022/07/30 12:48:33;;;;;;;4.00;1.60;;;29.10;99.90;;;;;;5070318;28;20185;-67
2022/07/30 12:51:09;;;;;;;1.73;1.63;;;28.80;99.90;;;;;;5044011;28;20172;-67